sensor_id;sensor_type;location;lat;lon;timestamp;temperature;humidity
30308;DHT22;17114;52.314;8.910;2023-07-24T00:00:14;17.90;99.90
30308;DHT22;17114;52.314;8.910;2023-07-24T00:02:41;18.00;99.90
30308;DHT22;17114;52.314;8.910;2023-07-24T00:05:08;18.00;99.90
30308;DHT22;17114;52.314;8.910;2023-07-24T00:07:36;18.00;99.90
30308;DHT22;17114;52.314;8.910;2023-07-24T00:10:04;18.00;99.90
30308;DHT22;17114;52.314;8.910;2023-07-24T00:12:31;18.00;99.90
30308;DHT22;17114;52.314;8.910;2023-07-24T00:14:58;18.00;99.90
30308;DHT22;17114;52.314;8.910;2023-07-24T00:17:25;18.00;99.90
30308;DHT22;17114;52.314;8.910;2023-07-24T00:19:52;18.00;99.90
30308;DHT22;17114;52.314;8.910;2023-07-24T00:22:19;18.00;99.90
30308;DHT22;17114;52.314;8.910;2023-07-24T00:24:45;18.00;99.90
30308;DHT22;17114;52.314;8.910;2023-07-24T00:27:12;18.00;99.90
30308;DHT22;17114;52.314;8.910;2023-07-24T00:29:40;18.00;99.90
30308;DHT22;17114;52.314;8.910;2023-07-24T00:32:07;18.00;99.90
30308;DHT22;17114;52.314;8.910;2023-07-24T00:34:34;18.00;99.90
30308;DHT22;17114;52.314;8.910;2023-07-24T00:37:01;18.00;99.90
30308;DHT22;17114;52.314;8.910;2023-07-24T00:39:28;18.00;99.90
30308;DHT22;17114;52.314;8.910;2023-07-24T00:41:56;18.00;99.90
30308;DHT22;17114;52.314;8.910;2023-07-24T00:44:23;18.00;99.90
30308;DHT22;17114;52.314;8.910;2023-07-24T00:46:50;18.00;99.90
30308;DHT22;17114;52.314;8.910;2023-07-24T00:49:17;18.00;99.90
30308;DHT22;17114;52.314;8.910;2023-07-24T00:51:44;18.00;99.90
30308;DHT22;17114;52.314;8.910;2023-07-24T00:54:13;18.00;99.90
30308;DHT22;17114;52.314;8.910;2023-07-24T00:56:41;18.00;99.90
30308;DHT22;17114;52.314;8.910;2023-07-24T00:59:08;18.00;99.90
30308;DHT22;17114;52.314;8.910;2023-07-24T01:01:37;18.00;99.90
30308;DHT22;17114;52.314;8.910;2023-07-24T01:04:05;18.00;99.90
30308;DHT22;17114;52.314;8.910;2023-07-24T01:06:32;18.00;99.90
30308;DHT22;17114;52.314;8.910;2023-07-24T01:08:59;18.00;99.90
30308;DHT22;17114;52.314;8.910;2023-07-24T01:11:50;18.00;99.90
30308;DHT22;17114;52.314;8.910;2023-07-24T01:14:44;18.00;99.90
30308;DHT22;17114;52.314;8.910;2023-07-24T01:17:22;18.00;99.90
30308;DHT22;17114;52.314;8.910;2023-07-24T01:19:58;18.00;99.90
30308;DHT22;17114;52.314;8.910;2023-07-24T01:27:49;18.00;99.90
30308;DHT22;17114;52.314;8.910;2023-07-24T01:30:19;18.00;99.90
30308;DHT22;17114;52.314;8.910;2023-07-24T01:32:47;18.00;99.90
30308;DHT22;17114;52.314;8.910;2023-07-24T01:35:14;18.00;99.90
30308;DHT22;17114;52.314;8.910;2023-07-24T01:37:42;18.00;99.90
30308;DHT22;17114;52.314;8.910;2023-07-24T01:40:10;17.90;99.90
30308;DHT22;17114;52.314;8.910;2023-07-24T01:42:38;17.90;99.90
30308;DHT22;17114;52.314;8.910;2023-07-24T01:45:05;17.90;99.90
30308;DHT22;17114;52.314;8.910;2023-07-24T01:47:32;17.90;99.90
30308;DHT22;17114;52.314;8.910;2023-07-24T01:49:59;17.90;99.90
30308;DHT22;17114;52.314;8.910;2023-07-24T01:52:26;17.90;99.90
30308;DHT22;17114;52.314;8.910;2023-07-24T01:54:53;17.90;99.90
30308;DHT22;17114;52.314;8.910;2023-07-24T01:57:20;17.90;99.90
30308;DHT22;17114;52.314;8.910;2023-07-24T01:59:47;17.90;99.90
30308;DHT22;17114;52.314;8.910;2023-07-24T02:02:15;17.90;99.90
30308;DHT22;17114;52.314;8.910;2023-07-24T02:04:42;17.90;99.90
30308;DHT22;17114;52.314;8.910;2023-07-24T02:07:09;18.00;99.90
30308;DHT22;17114;52.314;8.910;2023-07-24T02:09:36;17.90;99.90
30308;DHT22;17114;52.314;8.910;2023-07-24T02:12:03;17.90;99.90
30308;DHT22;17114;52.314;8.910;2023-07-24T02:14:30;17.90;99.90
30308;DHT22;17114;52.314;8.910;2023-07-24T02:16:57;17.90;99.90
30308;DHT22;17114;52.314;8.910;2023-07-24T02:19:24;17.90;99.90
30308;DHT22;17114;52.314;8.910;2023-07-24T02:21:51;18.00;99.90
30308;DHT22;17114;52.314;8.910;2023-07-24T02:24:18;17.90;99.90
30308;DHT22;17114;52.314;8.910;2023-07-24T02:26:44;17.90;99.90
30308;DHT22;17114;52.314;8.910;2023-07-24T02:29:11;18.00;99.90
30308;DHT22;17114;52.314;8.910;2023-07-24T02:31:38;18.00;99.90
30308;DHT22;17114;52.314;8.910;2023-07-24T02:34:05;18.00;99.90
30308;DHT22;17114;52.314;8.910;2023-07-24T02:36:32;18.00;99.90
30308;DHT22;17114;52.314;8.910;2023-07-24T02:38:59;17.90;99.90
30308;DHT22;17114;52.314;8.910;2023-07-24T02:41:26;18.00;99.90
30308;DHT22;17114;52.314;8.910;2023-07-24T02:43:52;18.00;99.90
30308;DHT22;17114;52.314;8.910;2023-07-24T02:46:19;18.00;99.90
30308;DHT22;17114;52.314;8.910;2023-07-24T02:48:46;18.00;99.90
30308;DHT22;17114;52.314;8.910;2023-07-24T02:51:13;18.00;99.90
30308;DHT22;17114;52.314;8.910;2023-07-24T02:53:40;18.00;99.90
30308;DHT22;17114;52.314;8.910;2023-07-24T02:56:07;18.00;99.90
30308;DHT22;17114;52.314;8.910;2023-07-24T02:58:34;18.00;99.90
30308;DHT22;17114;52.314;8.910;2023-07-24T03:01:05;18.00;99.90
30308;DHT22;17114;52.314;8.910;2023-07-24T03:03:34;17.90;99.90
30308;DHT22;17114;52.314;8.910;2023-07-24T03:06:01;17.70;99.90
30308;DHT22;17114;52.314;8.910;2023-07-24T03:08:28;17.80;99.90
30308;DHT22;17114;52.314;8.910;2023-07-24T03:10:55;17.80;99.90
30308;DHT22;17114;52.314;8.910;2023-07-24T03:13:22;17.70;99.90
30308;DHT22;17114;52.314;8.910;2023-07-24T03:15:58;17.70;99.90
30308;DHT22;17114;52.314;8.910;2023-07-24T03:18:25;17.70;99.90
30308;DHT22;17114;52.314;8.910;2023-07-24T03:20:52;17.60;99.90
30308;DHT22;17114;52.314;8.910;2023-07-24T03:23:19;17.60;99.90
30308;DHT22;17114;52.314;8.910;2023-07-24T03:25:47;17.50;99.90
30308;DHT22;17114;52.314;8.910;2023-07-24T03:28:13;17.50;99.90
30308;DHT22;17114;52.314;8.910;2023-07-24T03:30:40;17.50;99.90
30308;DHT22;17114;52.314;8.910;2023-07-24T03:33:07;17.50;99.90
30308;DHT22;17114;52.314;8.910;2023-07-24T03:35:34;17.40;99.90
30308;DHT22;17114;52.314;8.910;2023-07-24T03:38:01;17.40;99.90
30308;DHT22;17114;52.314;8.910;2023-07-24T03:40:28;17.50;99.90
30308;DHT22;17114;52.314;8.910;2023-07-24T03:42:55;17.40;99.90
30308;DHT22;17114;52.314;8.910;2023-07-24T03:45:22;17.40;99.90
30308;DHT22;17114;52.314;8.910;2023-07-24T03:47:49;17.40;99.90
30308;DHT22;17114;52.314;8.910;2023-07-24T03:50:16;17.40;99.90
30308;DHT22;17114;52.314;8.910;2023-07-24T03:52:43;17.50;99.90
30308;DHT22;17114;52.314;8.910;2023-07-24T03:55:10;17.40;99.90
30308;DHT22;17114;52.314;8.910;2023-07-24T03:57:37;17.30;99.90
30308;DHT22;17114;52.314;8.910;2023-07-24T04:00:04;17.40;99.90
30308;DHT22;17114;52.314;8.910;2023-07-24T04:02:32;17.50;99.90
30308;DHT22;17114;52.314;8.910;2023-07-24T04:04:59;17.50;99.90
30308;DHT22;17114;52.314;8.910;2023-07-24T04:07:26;17.60;99.90
30308;DHT22;17114;52.314;8.910;2023-07-24T04:09:53;17.70;99.90
30308;DHT22;17114;52.314;8.910;2023-07-24T04:12:20;17.80;99.90
30308;DHT22;17114;52.314;8.910;2023-07-24T04:14:47;17.90;99.90
30308;DHT22;17114;52.314;8.910;2023-07-24T04:17:15;17.90;99.90
30308;DHT22;17114;52.314;8.910;2023-07-24T04:19:42;18.00;99.90
30308;DHT22;17114;52.314;8.910;2023-07-24T04:22:09;18.00;99.90
30308;DHT22;17114;52.314;8.910;2023-07-24T04:24:36;18.10;99.90
30308;DHT22;17114;52.314;8.910;2023-07-24T04:27:03;18.10;99.90
30308;DHT22;17114;52.314;8.910;2023-07-24T04:29:30;18.20;99.90
30308;DHT22;17114;52.314;8.910;2023-07-24T04:31:57;18.20;99.90
30308;DHT22;17114;52.314;8.910;2023-07-24T04:34:24;18.20;99.90
30308;DHT22;17114;52.314;8.910;2023-07-24T04:36:51;18.30;99.90
30308;DHT22;17114;52.314;8.910;2023-07-24T04:39:17;18.50;99.90
30308;DHT22;17114;52.314;8.910;2023-07-24T04:41:44;18.70;99.90
30308;DHT22;17114;52.314;8.910;2023-07-24T04:44:11;18.80;99.90
30308;DHT22;17114;52.314;8.910;2023-07-24T04:46:38;18.90;99.90
30308;DHT22;17114;52.314;8.910;2023-07-24T04:49:05;18.90;99.90
30308;DHT22;17114;52.314;8.910;2023-07-24T04:51:32;18.90;99.90
30308;DHT22;17114;52.314;8.910;2023-07-24T04:54:02;19.10;99.90
30308;DHT22;17114;52.314;8.910;2023-07-24T04:56:29;19.10;99.90
30308;DHT22;17114;52.314;8.910;2023-07-24T04:58:56;19.10;99.90
30308;DHT22;17114;52.314;8.910;2023-07-24T05:01:23;19.10;99.90
30308;DHT22;17114;52.314;8.910;2023-07-24T05:03:50;19.10;99.90
30308;DHT22;17114;52.314;8.910;2023-07-24T05:06:17;19.10;99.90
30308;DHT22;17114;52.314;8.910;2023-07-24T05:08:44;19.10;99.90
30308;DHT22;17114;52.314;8.910;2023-07-24T05:11:11;19.10;99.90
30308;DHT22;17114;52.314;8.910;2023-07-24T05:13:38;19.10;99.90
30308;DHT22;17114;52.314;8.910;2023-07-24T05:16:05;19.10;99.90
30308;DHT22;17114;52.314;8.910;2023-07-24T05:18:32;19.10;99.90
30308;DHT22;17114;52.314;8.910;2023-07-24T05:20:59;19.00;99.90
30308;DHT22;17114;52.314;8.910;2023-07-24T05:23:26;19.00;99.90
30308;DHT22;17114;52.314;8.910;2023-07-24T05:25:59;18.90;99.90
30308;DHT22;17114;52.314;8.910;2023-07-24T05:28:31;18.80;99.90
30308;DHT22;17114;52.314;8.910;2023-07-24T05:31:02;18.70;99.90
30308;DHT22;17114;52.314;8.910;2023-07-24T05:33:30;18.70;99.90
30308;DHT22;17114;52.314;8.910;2023-07-24T05:35:59;18.70;99.90
30308;DHT22;17114;52.314;8.910;2023-07-24T05:38:26;18.70;99.90
30308;DHT22;17114;52.314;8.910;2023-07-24T05:41:00;18.70;99.90
30308;DHT22;17114;52.314;8.910;2023-07-24T05:43:28;18.60;99.90
30308;DHT22;17114;52.314;8.910;2023-07-24T05:45:56;18.60;99.90
30308;DHT22;17114;52.314;8.910;2023-07-24T05:48:24;18.50;99.90
30308;DHT22;17114;52.314;8.910;2023-07-24T05:50:51;18.40;99.90
30308;DHT22;17114;52.314;8.910;2023-07-24T05:53:18;18.40;99.90
30308;DHT22;17114;52.314;8.910;2023-07-24T05:55:45;18.30;99.90
30308;DHT22;17114;52.314;8.910;2023-07-24T05:58:12;18.20;99.90
30308;DHT22;17114;52.314;8.910;2023-07-24T06:00:41;18.10;99.90
30308;DHT22;17114;52.314;8.910;2023-07-24T06:03:08;18.10;99.90
30308;DHT22;17114;52.314;8.910;2023-07-24T06:05:35;18.00;99.90
30308;DHT22;17114;52.314;8.910;2023-07-24T06:08:02;18.00;99.90
30308;DHT22;17114;52.314;8.910;2023-07-24T06:10:29;18.00;99.90
30308;DHT22;17114;52.314;8.910;2023-07-24T06:12:55;17.90;99.90
30308;DHT22;17114;52.314;8.910;2023-07-24T06:15:22;17.90;99.90
30308;DHT22;17114;52.314;8.910;2023-07-24T06:17:49;17.80;99.90
30308;DHT22;17114;52.314;8.910;2023-07-24T06:20:20;17.70;99.90
30308;DHT22;17114;52.314;8.910;2023-07-24T06:22:47;17.70;99.90
30308;DHT22;17114;52.314;8.910;2023-07-24T06:25:14;17.60;99.90
30308;DHT22;17114;52.314;8.910;2023-07-24T06:27:41;17.60;99.90
30308;DHT22;17114;52.314;8.910;2023-07-24T06:30:08;17.50;99.90
30308;DHT22;17114;52.314;8.910;2023-07-24T06:32:45;17.40;99.90
30308;DHT22;17114;52.314;8.910;2023-07-24T06:35:13;17.40;99.90
30308;DHT22;17114;52.314;8.910;2023-07-24T06:37:40;17.40;99.90
30308;DHT22;17114;52.314;8.910;2023-07-24T06:40:12;17.40;99.90
30308;DHT22;17114;52.314;8.910;2023-07-24T06:42:39;17.40;99.90
30308;DHT22;17114;52.314;8.910;2023-07-24T06:45:07;17.40;99.90
30308;DHT22;17114;52.314;8.910;2023-07-24T06:47:36;17.50;99.90
30308;DHT22;17114;52.314;8.910;2023-07-24T06:50:03;17.50;99.90
30308;DHT22;17114;52.314;8.910;2023-07-24T06:52:34;17.50;99.90
30308;DHT22;17114;52.314;8.910;2023-07-24T06:55:01;17.60;99.90
30308;DHT22;17114;52.314;8.910;2023-07-24T06:57:29;17.60;99.90
30308;DHT22;17114;52.314;8.910;2023-07-24T06:59:56;17.70;99.90
30308;DHT22;17114;52.314;8.910;2023-07-24T07:02:23;17.80;99.90
30308;DHT22;17114;52.314;8.910;2023-07-24T07:04:49;17.80;99.90
30308;DHT22;17114;52.314;8.910;2023-07-24T07:07:16;17.70;99.90
30308;DHT22;17114;52.314;8.910;2023-07-24T07:09:43;17.70;99.90
30308;DHT22;17114;52.314;8.910;2023-07-24T07:12:10;17.70;99.90
30308;DHT22;17114;52.314;8.910;2023-07-24T07:14:37;17.70;99.90
30308;DHT22;17114;52.314;8.910;2023-07-24T07:17:04;17.70;99.90
30308;DHT22;17114;52.314;8.910;2023-07-24T07:19:31;17.70;99.90
30308;DHT22;17114;52.314;8.910;2023-07-24T07:21:57;17.80;99.90
30308;DHT22;17114;52.314;8.910;2023-07-24T07:24:24;17.90;99.90
30308;DHT22;17114;52.314;8.910;2023-07-24T07:26:52;18.00;99.90
30308;DHT22;17114;52.314;8.910;2023-07-24T07:29:18;18.10;99.90
30308;DHT22;17114;52.314;8.910;2023-07-24T07:31:50;18.30;99.90
30308;DHT22;17114;52.314;8.910;2023-07-24T07:34:17;18.50;99.90
30308;DHT22;17114;52.314;8.910;2023-07-24T07:36:44;18.50;99.90
30308;DHT22;17114;52.314;8.910;2023-07-24T07:39:11;18.50;99.90
30308;DHT22;17114;52.314;8.910;2023-07-24T07:41:40;18.50;99.90
30308;DHT22;17114;52.314;8.910;2023-07-24T07:44:07;18.60;99.90
30308;DHT22;17114;52.314;8.910;2023-07-24T07:46:34;18.50;99.90
30308;DHT22;17114;52.314;8.910;2023-07-24T07:49:01;18.50;99.90
30308;DHT22;17114;52.314;8.910;2023-07-24T07:51:28;18.50;99.90
30308;DHT22;17114;52.314;8.910;2023-07-24T07:53:58;18.50;99.90
30308;DHT22;17114;52.314;8.910;2023-07-24T07:56:28;18.60;99.90
30308;DHT22;17114;52.314;8.910;2023-07-24T07:58:55;18.80;99.90
30308;DHT22;17114;52.314;8.910;2023-07-24T08:01:22;19.00;99.90
30308;DHT22;17114;52.314;8.910;2023-07-24T08:03:49;19.10;99.90
30308;DHT22;17114;52.314;8.910;2023-07-24T08:06:16;19.00;99.90
30308;DHT22;17114;52.314;8.910;2023-07-24T08:08:43;19.10;99.90
30308;DHT22;17114;52.314;8.910;2023-07-24T08:11:10;19.30;99.90
30308;DHT22;17114;52.314;8.910;2023-07-24T08:13:37;19.50;99.90
30308;DHT22;17114;52.314;8.910;2023-07-24T08:16:04;19.60;99.90
30308;DHT22;17114;52.314;8.910;2023-07-24T08:18:31;19.80;99.90
30308;DHT22;17114;52.314;8.910;2023-07-24T08:20:57;19.90;99.90
30308;DHT22;17114;52.314;8.910;2023-07-24T08:23:24;20.00;99.90
30308;DHT22;17114;52.314;8.910;2023-07-24T08:25:53;20.20;99.90
30308;DHT22;17114;52.314;8.910;2023-07-24T08:28:20;20.20;99.90
30308;DHT22;17114;52.314;8.910;2023-07-24T08:30:56;20.10;99.90
30308;DHT22;17114;52.314;8.910;2023-07-24T08:33:24;19.90;99.90
30308;DHT22;17114;52.314;8.910;2023-07-24T08:36:06;19.70;99.90
30308;DHT22;17114;52.314;8.910;2023-07-24T08:38:34;19.70;99.90
30308;DHT22;17114;52.314;8.910;2023-07-24T08:41:12;19.80;99.90
30308;DHT22;17114;52.314;8.910;2023-07-24T08:43:41;19.80;99.90
30308;DHT22;17114;52.314;8.910;2023-07-24T08:46:09;19.80;99.90
30308;DHT22;17114;52.314;8.910;2023-07-24T08:48:38;19.70;99.90
30308;DHT22;17114;52.314;8.910;2023-07-24T08:51:13;19.80;99.90
30308;DHT22;17114;52.314;8.910;2023-07-24T08:53:41;20.40;99.90
30308;DHT22;17114;52.314;8.910;2023-07-24T08:56:10;21.00;99.90
30308;DHT22;17114;52.314;8.910;2023-07-24T08:58:40;21.20;99.90
30308;DHT22;17114;52.314;8.910;2023-07-24T09:01:08;21.20;99.90
30308;DHT22;17114;52.314;8.910;2023-07-24T09:03:36;21.20;99.90
30308;DHT22;17114;52.314;8.910;2023-07-24T09:06:04;21.10;99.90
30308;DHT22;17114;52.314;8.910;2023-07-24T09:08:33;20.90;99.90
30308;DHT22;17114;52.314;8.910;2023-07-24T09:11:02;20.80;99.90
30308;DHT22;17114;52.314;8.910;2023-07-24T09:13:29;20.80;99.90
30308;DHT22;17114;52.314;8.910;2023-07-24T09:15:57;20.80;99.90
30308;DHT22;17114;52.314;8.910;2023-07-24T09:18:41;20.80;99.90
30308;DHT22;17114;52.314;8.910;2023-07-24T09:21:10;20.80;99.90
30308;DHT22;17114;52.314;8.910;2023-07-24T09:23:40;20.80;99.90
30308;DHT22;17114;52.314;8.910;2023-07-24T09:26:07;21.00;99.90
30308;DHT22;17114;52.314;8.910;2023-07-24T09:28:35;21.60;99.90
30308;DHT22;17114;52.314;8.910;2023-07-24T09:31:03;22.00;99.90
30308;DHT22;17114;52.314;8.910;2023-07-24T09:33:40;22.10;99.90
30308;DHT22;17114;52.314;8.910;2023-07-24T09:36:08;21.90;99.90
30308;DHT22;17114;52.314;8.910;2023-07-24T09:38:36;21.70;99.90
30308;DHT22;17114;52.314;8.910;2023-07-24T09:41:04;21.50;99.90
30308;DHT22;17114;52.314;8.910;2023-07-24T09:43:32;21.40;99.90
30308;DHT22;17114;52.314;8.910;2023-07-24T09:46:06;21.20;99.90
30308;DHT22;17114;52.314;8.910;2023-07-24T09:48:34;21.20;99.90
30308;DHT22;17114;52.314;8.910;2023-07-24T09:51:11;21.30;99.90
30308;DHT22;17114;52.314;8.910;2023-07-24T09:53:43;21.40;99.90
30308;DHT22;17114;52.314;8.910;2023-07-24T09:56:17;21.40;99.90
30308;DHT22;17114;52.314;8.910;2023-07-24T09:58:44;21.30;99.90
30308;DHT22;17114;52.314;8.910;2023-07-24T10:01:11;21.30;99.90
30308;DHT22;17114;52.314;8.910;2023-07-24T10:03:40;21.30;99.90
30308;DHT22;17114;52.314;8.910;2023-07-24T10:06:09;21.50;99.90
30308;DHT22;17114;52.314;8.910;2023-07-24T10:08:42;21.90;99.90
30308;DHT22;17114;52.314;8.910;2023-07-24T10:11:11;22.00;99.90
30308;DHT22;17114;52.314;8.910;2023-07-24T10:13:39;21.90;99.90
30308;DHT22;17114;52.314;8.910;2023-07-24T10:16:06;21.70;99.90
30308;DHT22;17114;52.314;8.910;2023-07-24T10:18:35;21.30;99.90
30308;DHT22;17114;52.314;8.910;2023-07-24T10:21:09;20.90;99.90
30308;DHT22;17114;52.314;8.910;2023-07-24T10:23:44;20.40;99.90
30308;DHT22;17114;52.314;8.910;2023-07-24T10:26:13;20.00;99.90
30308;DHT22;17114;52.314;8.910;2023-07-24T10:28:42;19.90;99.90
30308;DHT22;17114;52.314;8.910;2023-07-24T10:31:23;19.90;99.90
30308;DHT22;17114;52.314;8.910;2023-07-24T10:33:50;20.20;99.90
30308;DHT22;17114;52.314;8.910;2023-07-24T10:36:19;20.60;99.90
30308;DHT22;17114;52.314;8.910;2023-07-24T10:38:51;21.00;99.90
30308;DHT22;17114;52.314;8.910;2023-07-24T10:41:19;21.20;99.90
30308;DHT22;17114;52.314;8.910;2023-07-24T10:43:51;21.50;99.90
30308;DHT22;17114;52.314;8.910;2023-07-24T10:46:20;21.90;99.90
30308;DHT22;17114;52.314;8.910;2023-07-24T10:48:49;22.10;99.90
30308;DHT22;17114;52.314;8.910;2023-07-24T10:51:16;22.00;99.90
30308;DHT22;17114;52.314;8.910;2023-07-24T10:53:48;22.20;99.90
30308;DHT22;17114;52.314;8.910;2023-07-24T10:56:16;22.60;99.90
30308;DHT22;17114;52.314;8.910;2023-07-24T10:58:43;23.10;99.90
30308;DHT22;17114;52.314;8.910;2023-07-24T11:01:10;23.40;99.90
30308;DHT22;17114;52.314;8.910;2023-07-24T11:03:41;23.60;99.90
30308;DHT22;17114;52.314;8.910;2023-07-24T11:06:16;23.30;99.90
30308;DHT22;17114;52.314;8.910;2023-07-24T11:08:51;23.00;99.90
30308;DHT22;17114;52.314;8.910;2023-07-24T11:11:19;22.90;99.90
30308;DHT22;17114;52.314;8.910;2023-07-24T11:13:45;22.60;99.90
30308;DHT22;17114;52.314;8.910;2023-07-24T11:16:12;22.50;99.90
30308;DHT22;17114;52.314;8.910;2023-07-24T11:18:47;22.70;99.90
30308;DHT22;17114;52.314;8.910;2023-07-24T11:21:20;22.70;99.90
30308;DHT22;17114;52.314;8.910;2023-07-24T11:23:49;22.50;99.90
30308;DHT22;17114;52.314;8.910;2023-07-24T11:26:19;22.30;99.90
30308;DHT22;17114;52.314;8.910;2023-07-24T11:28:46;22.70;99.90
30308;DHT22;17114;52.314;8.910;2023-07-24T11:31:13;23.10;99.90
30308;DHT22;17114;52.314;8.910;2023-07-24T11:33:42;23.50;99.90
30308;DHT22;17114;52.314;8.910;2023-07-24T11:36:09;23.80;99.90
30308;DHT22;17114;52.314;8.910;2023-07-24T11:38:36;23.80;99.90
30308;DHT22;17114;52.314;8.910;2023-07-24T11:41:05;23.50;99.90
30308;DHT22;17114;52.314;8.910;2023-07-24T11:43:32;23.10;99.90
30308;DHT22;17114;52.314;8.910;2023-07-24T11:45:59;23.00;99.90
30308;DHT22;17114;52.314;8.910;2023-07-24T11:48:26;22.80;99.90
30308;DHT22;17114;52.314;8.910;2023-07-24T11:50:54;22.50;99.90
30308;DHT22;17114;52.314;8.910;2023-07-24T11:53:26;22.30;99.90
30308;DHT22;17114;52.314;8.910;2023-07-24T11:55:55;22.10;99.90
30308;DHT22;17114;52.314;8.910;2023-07-24T11:58:26;22.00;99.90
30308;DHT22;17114;52.314;8.910;2023-07-24T12:00:53;21.90;99.90
30308;DHT22;17114;52.314;8.910;2023-07-24T12:03:21;21.70;99.90
30308;DHT22;17114;52.314;8.910;2023-07-24T12:05:49;21.70;99.90
30308;DHT22;17114;52.314;8.910;2023-07-24T12:08:20;21.70;99.90
30308;DHT22;17114;52.314;8.910;2023-07-24T12:10:50;21.70;99.90
30308;DHT22;17114;52.314;8.910;2023-07-24T12:13:17;21.70;99.90
30308;DHT22;17114;52.314;8.910;2023-07-24T12:15:47;21.70;99.90
30308;DHT22;17114;52.314;8.910;2023-07-24T12:18:15;21.60;99.90
30308;DHT22;17114;52.314;8.910;2023-07-24T12:20:42;21.50;99.90
30308;DHT22;17114;52.314;8.910;2023-07-24T12:23:09;21.50;99.90
30308;DHT22;17114;52.314;8.910;2023-07-24T12:25:36;21.50;99.90
30308;DHT22;17114;52.314;8.910;2023-07-24T12:28:02;21.40;99.90
30308;DHT22;17114;52.314;8.910;2023-07-24T12:30:29;21.40;99.90
30308;DHT22;17114;52.314;8.910;2023-07-24T12:32:56;21.70;99.90
30308;DHT22;17114;52.314;8.910;2023-07-24T12:35:23;21.80;99.90
30308;DHT22;17114;52.314;8.910;2023-07-24T12:37:50;21.90;99.90
30308;DHT22;17114;52.314;8.910;2023-07-24T12:40:17;22.00;99.90
30308;DHT22;17114;52.314;8.910;2023-07-24T12:42:43;22.00;99.90
30308;DHT22;17114;52.314;8.910;2023-07-24T12:45:10;21.90;99.90
30308;DHT22;17114;52.314;8.910;2023-07-24T12:47:37;22.00;99.90
30308;DHT22;17114;52.314;8.910;2023-07-24T12:50:04;22.00;99.90
30308;DHT22;17114;52.314;8.910;2023-07-24T12:52:34;21.90;99.90
30308;DHT22;17114;52.314;8.910;2023-07-24T12:55:00;21.80;99.90
30308;DHT22;17114;52.314;8.910;2023-07-24T12:57:29;21.70;99.90
30308;DHT22;17114;52.314;8.910;2023-07-24T12:59:56;21.70;99.90
30308;DHT22;17114;52.314;8.910;2023-07-24T13:02:23;21.50;99.90
30308;DHT22;17114;52.314;8.910;2023-07-24T13:04:50;21.20;99.90
30308;DHT22;17114;52.314;8.910;2023-07-24T13:07:17;21.00;99.90
30308;DHT22;17114;52.314;8.910;2023-07-24T13:09:44;20.90;99.90
30308;DHT22;17114;52.314;8.910;2023-07-24T13:12:12;20.70;99.90
30308;DHT22;17114;52.314;8.910;2023-07-24T13:14:39;20.50;99.90
30308;DHT22;17114;52.314;8.910;2023-07-24T13:17:09;20.40;99.90
30308;DHT22;17114;52.314;8.910;2023-07-24T13:19:36;20.20;99.90
30308;DHT22;17114;52.314;8.910;2023-07-24T13:22:03;20.00;99.90
30308;DHT22;17114;52.314;8.910;2023-07-24T13:24:30;19.90;99.90
30308;DHT22;17114;52.314;8.910;2023-07-24T13:26:59;19.80;99.90
30308;DHT22;17114;52.314;8.910;2023-07-24T13:29:29;19.60;99.90
30308;DHT22;17114;52.314;8.910;2023-07-24T13:31:56;19.50;99.90
30308;DHT22;17114;52.314;8.910;2023-07-24T13:34:24;19.30;99.90
30308;DHT22;17114;52.314;8.910;2023-07-24T13:36:51;19.30;99.90
30308;DHT22;17114;52.314;8.910;2023-07-24T13:39:17;19.10;99.90
30308;DHT22;17114;52.314;8.910;2023-07-24T13:41:44;19.00;99.90
30308;DHT22;17114;52.314;8.910;2023-07-24T13:44:11;18.90;99.90
30308;DHT22;17114;52.314;8.910;2023-07-24T13:46:39;18.90;99.90
30308;DHT22;17114;52.314;8.910;2023-07-24T13:49:06;18.90;99.90
30308;DHT22;17114;52.314;8.910;2023-07-24T13:51:33;18.80;99.90
30308;DHT22;17114;52.314;8.910;2023-07-24T13:54:00;18.70;99.90
30308;DHT22;17114;52.314;8.910;2023-07-24T13:56:29;18.70;99.90
30308;DHT22;17114;52.314;8.910;2023-07-24T13:59:00;18.90;99.90
30308;DHT22;17114;52.314;8.910;2023-07-24T14:01:26;19.00;99.90
30308;DHT22;17114;52.314;8.910;2023-07-24T14:03:53;19.20;99.90
30308;DHT22;17114;52.314;8.910;2023-07-24T14:06:20;19.40;99.90
30308;DHT22;17114;52.314;8.910;2023-07-24T14:08:47;19.60;99.90
30308;DHT22;17114;52.314;8.910;2023-07-24T14:11:14;19.70;99.90
30308;DHT22;17114;52.314;8.910;2023-07-24T14:13:41;19.80;99.90
30308;DHT22;17114;52.314;8.910;2023-07-24T14:16:08;20.00;99.90
30308;DHT22;17114;52.314;8.910;2023-07-24T14:18:35;20.10;99.90
30308;DHT22;17114;52.314;8.910;2023-07-24T14:21:02;20.00;99.90
30308;DHT22;17114;52.314;8.910;2023-07-24T14:23:29;20.00;99.90
30308;DHT22;17114;52.314;8.910;2023-07-24T14:25:56;20.00;99.90
30308;DHT22;17114;52.314;8.910;2023-07-24T14:28:22;20.00;99.90
30308;DHT22;17114;52.314;8.910;2023-07-24T14:30:49;20.10;99.90
30308;DHT22;17114;52.314;8.910;2023-07-24T14:33:16;20.30;99.90
30308;DHT22;17114;52.314;8.910;2023-07-24T14:35:43;20.30;99.90
30308;DHT22;17114;52.314;8.910;2023-07-24T14:38:10;20.40;99.90
30308;DHT22;17114;52.314;8.910;2023-07-24T14:40:36;20.50;99.90
30308;DHT22;17114;52.314;8.910;2023-07-24T14:43:03;20.40;99.90
30308;DHT22;17114;52.314;8.910;2023-07-24T14:45:33;20.30;99.90
30308;DHT22;17114;52.314;8.910;2023-07-24T14:48:00;20.40;99.90
30308;DHT22;17114;52.314;8.910;2023-07-24T14:50:27;20.60;99.90
30308;DHT22;17114;52.314;8.910;2023-07-24T14:52:55;20.70;99.90
30308;DHT22;17114;52.314;8.910;2023-07-24T14:55:21;21.00;99.90
30308;DHT22;17114;52.314;8.910;2023-07-24T14:57:49;21.20;99.90
30308;DHT22;17114;52.314;8.910;2023-07-24T15:00:16;21.30;99.90
30308;DHT22;17114;52.314;8.910;2023-07-24T15:02:43;21.30;99.90
30308;DHT22;17114;52.314;8.910;2023-07-24T15:05:10;21.30;99.90
30308;DHT22;17114;52.314;8.910;2023-07-24T15:07:37;21.20;99.90
30308;DHT22;17114;52.314;8.910;2023-07-24T15:10:05;21.00;99.90
30308;DHT22;17114;52.314;8.910;2023-07-24T15:12:32;20.90;99.90
30308;DHT22;17114;52.314;8.910;2023-07-24T15:14:59;20.90;99.90
30308;DHT22;17114;52.314;8.910;2023-07-24T15:17:26;20.90;99.90
30308;DHT22;17114;52.314;8.910;2023-07-24T15:19:53;21.00;99.90
30308;DHT22;17114;52.314;8.910;2023-07-24T15:22:20;21.00;99.90
30308;DHT22;17114;52.314;8.910;2023-07-24T15:24:49;20.90;99.90
30308;DHT22;17114;52.314;8.910;2023-07-24T15:27:16;20.90;99.90
30308;DHT22;17114;52.314;8.910;2023-07-24T15:29:43;20.90;99.90
30308;DHT22;17114;52.314;8.910;2023-07-24T15:32:09;20.90;99.90
30308;DHT22;17114;52.314;8.910;2023-07-24T15:34:38;20.90;99.90
30308;DHT22;17114;52.314;8.910;2023-07-24T15:37:05;21.10;99.90
30308;DHT22;17114;52.314;8.910;2023-07-24T15:39:32;21.10;99.90